Time;durP1;ratioP1;P1;durP2;ratioP2;P2;SDS_P1;SDS_P2;PMS_P1;PMS_P2;Temp;Humidity;BMP_temperature;BMP_pressure;BME280_temperature;BME280_humidity;BME280_pressure;Samples;Min_cycle;Max_cycle;Signal;HPM_P1;HPM_P2
2023/08/30 00:01:44;;;;;;;1.13;0.55;;;;;;;;;;10158425;29;20087;-89
2023/08/30 00:06:48;;;;;;;0.63;0.50;;;;;;;;;;10127348;29;20139;-90
2023/08/30 00:11:51;;;;;;;1.23;0.80;;;;;;;;;;10123006;29;20080;-91
2023/08/30 00:16:56;;;;;;;1.20;0.52;;;;;;;;;;10127493;29;20053;-90
2023/08/30 00:22:00;;;;;;;0.80;0.70;;;;;;;;;;10140743;29;20052;-90
2023/08/30 00:27:04;;;;;;;1.52;0.90;;;;;;;;;;10128141;29;20048;-90
2023/08/30 00:32:09;;;;;;;1.02;0.90;;;;;;;;;;10146078;29;20045;-90
2023/08/30 00:37:13;;;;;;;1.42;0.90;;;;;;;;;;10126784;29;20045;-91
2023/08/30 00:42:16;;;;;;;1.42;1.10;;;;;;;;;;10132483;29;20050;-90
2023/08/30 00:47:22;;;;;;;0.70;0.70;;;;;;;;;;10147388;29;20056;-90
2023/08/30 00:52:27;;;;;;;1.52;1.15;;;;;;;;;;10135123;29;20048;-91
2023/08/30 00:57:34;;;;;;;0.90;0.88;;;;;;;;;;10134517;29;20048;-90
2023/08/30 01:13:45;;;;;;;0.82;0.82;;;;;;;;;;10892444;23;20982;-85
2023/08/30 01:18:49;;;;;;;0.73;0.73;;;;;;;;;;10145343;29;20135;-84
2023/08/30 01:24:00;;;;;;;2.80;0.90;;;;;;;;;;10148473;29;20120;-84
2023/08/30 01:29:05;;;;;;;1.05;0.95;;;;;;;;;;10143994;29;20556;-84
2023/08/30 01:34:08;;;;;;;1.00;0.90;;;;;;;;;;10143035;29;20060;-85
2023/08/30 01:39:14;;;;;;;0.63;0.63;;;;;;;;;;10129884;29;20052;-84
2023/08/30 01:44:19;;;;;;;1.00;0.90;;;;;;;;;;10141085;29;20135;-84
2023/08/30 01:49:23;;;;;;;1.98;0.65;;;;;;;;;;10142076;29;20044;-83
2023/08/30 01:54:28;;;;;;;0.73;0.70;;;;;;;;;;10141124;29;20056;-84
2023/08/30 01:59:33;;;;;;;0.93;0.88;;;;;;;;;;10141557;29;20645;-84
2023/08/30 02:04:37;;;;;;;1.13;0.73;;;;;;;;;;10141768;29;20092;-84
2023/08/30 02:09:48;;;;;;;2.38;0.80;;;;;;;;;;10134158;29;20059;-84
2023/08/30 02:14:53;;;;;;;1.10;0.95;;;;;;;;;;10138272;29;20146;-84
2023/08/30 02:19:57;;;;;;;4.15;0.88;;;;;;;;;;10135961;29;20112;-84
2023/08/30 02:25:04;;;;;;;0.95;0.88;;;;;;;;;;10139906;29;20079;-84
2023/08/30 02:30:10;;;;;;;1.20;1.10;;;;;;;;;;10133556;29;20056;-84
2023/08/30 02:35:13;;;;;;;1.35;1.23;;;;;;;;;;10144153;29;21615;-84
2023/08/30 02:40:17;;;;;;;1.58;1.48;;;;;;;;;;10131564;29;20074;-84
2023/08/30 02:45:22;;;;;;;1.38;1.27;;;;;;;;;;10140746;29;20099;-84
2023/08/30 02:50:25;;;;;;;1.67;1.40;;;;;;;;;;10131281;29;20060;-84
2023/08/30 02:55:28;;;;;;;3.67;1.35;;;;;;;;;;10156155;29;20139;-84
2023/08/30 03:00:34;;;;;;;1.42;1.10;;;;;;;;;;10139813;29;20480;-84
2023/08/30 03:05:39;;;;;;;1.35;1.10;;;;;;;;;;10139397;29;20056;-83
2023/08/30 03:10:43;;;;;;;1.60;1.38;;;;;;;;;;10131787;29;20823;-83
2023/08/30 03:15:49;;;;;;;1.23;1.10;;;;;;;;;;10131470;29;20470;-84
2023/08/30 03:21:02;;;;;;;1.67;1.30;;;;;;;;;;10145258;29;20071;-84
2023/08/30 03:26:12;;;;;;;1.30;1.17;;;;;;;;;;10139401;29;20056;-84
2023/08/30 03:31:18;;;;;;;1.80;1.50;;;;;;;;;;10139099;29;20048;-84
2023/08/30 03:36:22;;;;;;;1.50;1.40;;;;;;;;;;10139115;29;20108;-84
2023/08/30 03:41:25;;;;;;;2.60;1.70;;;;;;;;;;10154277;29;20084;-84
2023/08/30 03:46:30;;;;;;;2.35;1.58;;;;;;;;;;10131125;29;20447;-84
2023/08/30 03:51:35;;;;;;;3.17;1.63;;;;;;;;;;10130872;29;20072;-84
2023/08/30 03:56:38;;;;;;;1.98;1.77;;;;;;;;;;10139163;29;20056;-84
2023/08/30 04:01:43;;;;;;;2.47;1.50;;;;;;;;;;10138775;29;20052;-84
2023/08/30 04:06:46;;;;;;;2.22;1.52;;;;;;;;;;10137724;29;20044;-83
2023/08/30 04:11:52;;;;;;;2.63;1.87;;;;;;;;;;10132120;29;20092;-84
2023/08/30 04:16:56;;;;;;;2.83;2.35;;;;;;;;;;10147380;29;20120;-84
2023/08/30 04:22:00;;;;;;;5.18;2.35;;;;;;;;;;10143848;29;20052;-85
2023/08/30 04:27:03;;;;;;;2.50;2.20;;;;;;;;;;10144219;29;20072;-84
2023/08/30 04:32:10;;;;;;;3.08;2.20;;;;;;;;;;10146639;29;20059;-85
2023/08/30 04:37:13;;;;;;;3.22;2.45;;;;;;;;;;10146397;29;20064;-84
2023/08/30 04:42:17;;;;;;;2.70;2.20;;;;;;;;;;10145725;29;20131;-85
2023/08/30 04:47:22;;;;;;;3.35;2.45;;;;;;;;;;10136195;29;20140;-86
2023/08/30 04:52:26;;;;;;;2.40;2.20;;;;;;;;;;10142966;29;20060;-86
2023/08/30 04:57:36;;;;;;;2.15;1.85;;;;;;;;;;10147864;29;20056;-86
2023/08/30 05:02:46;;;;;;;2.50;2.30;;;;;;;;;;10142337;29;20052;-86
2023/08/30 05:07:50;;;;;;;3.25;2.65;;;;;;;;;;10151298;29;20058;-85
2023/08/30 05:12:53;;;;;;;2.38;2.17;;;;;;;;;;10147818;29;20455;-86
2023/08/30 05:18:00;;;;;;;2.70;2.40;;;;;;;;;;10134213;29;20133;-86
2023/08/30 05:23:04;;;;;;;2.92;2.30;;;;;;;;;;10153247;29;20537;-86
2023/08/30 05:28:07;;;;;;;2.55;2.30;;;;;;;;;;10157606;29;20056;-86
2023/08/30 05:33:20;;;;;;;3.85;2.22;;;;;;;;;;10154092;29;20058;-86
2023/08/30 05:38:49;;;;;;;2.40;2.17;;;;;;;;;;10092752;29;20056;-86
2023/08/30 05:44:09;;;;;;;2.60;2.40;;;;;;;;;;10143111;29;20130;-87
2023/08/30 05:49:14;;;;;;;2.90;2.45;;;;;;;;;;10155074;29;20104;-87
2023/08/30 05:54:29;;;;;;;2.28;2.03;;;;;;;;;;10153699;29;20039;-87
2023/08/30 05:59:35;;;;;;;1.95;1.80;;;;;;;;;;10155093;29;20095;-86
2023/08/30 06:04:39;;;;;;;2.40;2.20;;;;;;;;;;10138246;29;20501;-87
2023/08/30 06:09:46;;;;;;;2.22;2.03;;;;;;;;;;10150722;29;20040;-86
2023/08/30 06:14:52;;;;;;;2.72;2.30;;;;;;;;;;10165210;29;20052;-87
2023/08/30 06:19:59;;;;;;;3.00;2.35;;;;;;;;;;10150019;29;20075;-87
2023/08/30 06:25:04;;;;;;;2.95;2.47;;;;;;;;;;10141994;29;20060;-87
2023/08/30 06:30:11;;;;;;;2.28;2.08;;;;;;;;;;10154846;29;20060;-86
2023/08/30 06:35:16;;;;;;;2.85;1.80;;;;;;;;;;10180715;29;20055;-88
2023/08/30 06:40:20;;;;;;;3.22;2.25;;;;;;;;;;10156530;29;20111;-88
2023/08/30 06:45:27;;;;;;;;;;;;;;;;;;10155640;29;20131;-88
2023/08/30 06:50:32;;;;;;;2.53;2.00;;;;;;;;;;10159143;29;19997;-88
2023/08/30 06:55:36;;;;;;;2.20;1.88;;;;;;;;;;10145127;29;20421;-87
2023/08/30 07:00:43;;;;;;;2.65;2.20;;;;;;;;;;10144980;29;20052;-88
2023/08/30 07:05:48;;;;;;;2.30;2.08;;;;;;;;;;10148758;29;20128;-87
2023/08/30 07:10:58;;;;;;;2.33;1.83;;;;;;;;;;10153522;29;20140;-87
2023/08/30 07:16:06;;;;;;;3.03;1.83;;;;;;;;;;10149668;29;20087;-87
2023/08/30 07:21:11;;;;;;;2.47;2.10;;;;;;;;;;10163657;29;20056;-88
2023/08/30 07:26:18;;;;;;;2.30;1.92;;;;;;;;;;10154979;29;20119;-88
2023/08/30 07:31:22;;;;;;;2.15;1.80;;;;;;;;;;10171636;29;20056;-88
2023/08/30 07:36:34;;;;;;;2.15;1.67;;;;;;;;;;10154436;29;20112;-88
2023/08/30 07:41:43;;;;;;;1.52;1.42;;;;;;;;;;10148417;29;20688;-87
2023/08/30 07:46:48;;;;;;;1.50;1.40;;;;;;;;;;10145006;29;20509;-87
2023/08/30 07:51:52;;;;;;;1.83;1.48;;;;;;;;;;10146324;29;20048;-87
2023/08/30 07:57:00;;;;;;;2.28;1.60;;;;;;;;;;10138221;29;20091;-87
2023/08/30 08:02:06;;;;;;;2.03;1.70;;;;;;;;;;10146557;29;20044;-86
2023/08/30 08:07:14;;;;;;;1.77;1.60;;;;;;;;;;10146051;29;20403;-87
2023/08/30 08:12:18;;;;;;;1.55;1.38;;;;;;;;;;10162955;29;20056;-87
2023/08/30 08:17:21;;;;;;;2.15;1.92;;;;;;;;;;10148540;29;20439;-87
2023/08/30 08:22:30;;;;;;;2.78;1.88;;;;;;;;;;10145536;29;20147;-87
2023/08/30 08:27:34;;;;;;;3.03;2.45;;;;;;;;;;10133938;29;20052;-87
2023/08/30 08:32:41;;;;;;;2.13;1.80;;;;;;;;;;10146177;29;20510;-86
2023/08/30 08:37:46;;;;;;;3.25;2.20;;;;;;;;;;10142430;29;20108;-87
2023/08/30 08:42:55;;;;;;;5.43;3.22;;;;;;;;;;10132002;29;20074;-86
2023/08/30 08:47:59;;;;;;;2.25;1.73;;;;;;;;;;10143379;29;20052;-86
2023/08/30 08:53:08;;;;;;;4.10;2.55;;;;;;;;;;10118672;29;20052;-86
2023/08/30 08:58:13;;;;;;;2.65;1.70;;;;;;;;;;10158078;29;20048;-86
2023/08/30 09:03:20;;;;;;;3.50;2.17;;;;;;;;;;10139037;29;20142;-86
2023/08/30 09:08:26;;;;;;;2.90;2.08;;;;;;;;;;10157780;29;20059;-87
2023/08/30 09:13:32;;;;;;;4.55;1.85;;;;;;;;;;10147713;29;20066;-86
2023/08/30 09:18:35;;;;;;;2.47;2.00;;;;;;;;;;10155500;29;20079;-86
2023/08/30 09:23:58;;;;;;;2.33;1.80;;;;;;;;;;10114632;29;20083;-86
2023/08/30 09:29:05;;;;;;;3.22;2.00;;;;;;;;;;10140171;29;20044;-86
2023/08/30 09:34:11;;;;;;;2.03;1.50;;;;;;;;;;10147319;29;20056;-86
2023/08/30 09:39:18;;;;;;;2.73;2.00;;;;;;;;;;10148272;29;20692;-87
2023/08/30 09:44:24;;;;;;;2.08;1.50;;;;;;;;;;10147318;29;20052;-86
2023/08/30 09:49:28;;;;;;;2.10;1.48;;;;;;;;;;10147275;29;20052;-86
2023/08/30 09:54:38;;;;;;;5.80;2.00;;;;;;;;;;10144739;29;20062;-85
2023/08/30 09:59:42;;;;;;;2.65;1.65;;;;;;;;;;10138457;29;20147;-85
2023/08/30 10:04:47;;;;;;;3.78;1.67;;;;;;;;;;10161455;29;20044;-85
2023/08/30 10:09:53;;;;;;;1.30;1.08;;;;;;;;;;10142114;29;20048;-86
2023/08/30 10:15:10;;;;;;;3.58;1.80;;;;;;;;;;10152207;29;20052;-86
2023/08/30 10:20:18;;;;;;;1.95;1.45;;;;;;;;;;10152583;29;20052;-86
2023/08/30 10:25:26;;;;;;;3.08;1.42;;;;;;;;;;10143877;29;20116;-86
2023/08/30 10:30:35;;;;;;;3.35;1.60;;;;;;;;;;10161075;29;20067;-86
2023/08/30 10:35:48;;;;;;;3.17;1.50;;;;;;;;;;10144562;29;20051;-85
2023/08/30 10:40:53;;;;;;;3.17;1.77;;;;;;;;;;10142599;29;20062;-84
2023/08/30 10:46:02;;;;;;;2.47;1.40;;;;;;;;;;10142074;29;20058;-85
2023/08/30 10:51:07;;;;;;;3.40;1.73;;;;;;;;;;10146446;29;20051;-85
2023/08/30 10:56:28;;;;;;;2.72;1.70;;;;;;;;;;10145473;29;20060;-85
2023/08/30 11:01:33;;;;;;;2.72;1.60;;;;;;;;;;10151589;29;20067;-85
2023/08/30 11:06:39;;;;;;;2.50;1.67;;;;;;;;;;10130616;29;20528;-85
2023/08/30 11:11:46;;;;;;;1.60;1.20;;;;;;;;;;10151723;29;20467;-85
2023/08/30 11:16:51;;;;;;;3.63;1.60;;;;;;;;;;10140654;29;20052;-85
2023/08/30 11:21:55;;;;;;;2.45;1.73;;;;;;;;;;10123792;29;20104;-85
2023/08/30 11:27:03;;;;;;;2.15;1.52;;;;;;;;;;10124443;29;20139;-86
2023/08/30 11:32:11;;;;;;;3.85;1.95;;;;;;;;;;10134485;29;20190;-85
2023/08/30 11:37:19;;;;;;;3.25;1.83;;;;;;;;;;10150314;29;20135;-86
2023/08/30 11:42:26;;;;;;;2.95;1.88;;;;;;;;;;10150853;29;20060;-85
2023/08/30 11:47:29;;;;;;;3.97;2.03;;;;;;;;;;10111581;29;20080;-85
2023/08/30 11:52:38;;;;;;;3.25;1.70;;;;;;;;;;10143365;29;20072;-85
2023/08/30 11:57:49;;;;;;;2.10;1.45;;;;;;;;;;10153499;29;20083;-86
2023/08/30 12:02:52;;;;;;;1.30;1.10;;;;;;;;;;10157450;29;20152;-84
2023/08/30 12:07:56;;;;;;;2.03;1.25;;;;;;;;;;10115683;29;20060;-85
2023/08/30 12:13:03;;;;;;;3.25;1.58;;;;;;;;;;10145005;29;20135;-86
2023/08/30 12:18:10;;;;;;;4.43;2.20;;;;;;;;;;10143014;29;20044;-85
2023/08/30 12:23:21;;;;;;;3.70;2.35;;;;;;;;;;10135897;29;20048;-84
2023/08/30 12:28:26;;;;;;;3.60;2.15;;;;;;;;;;10112756;29;20048;-86
2023/08/30 12:33:36;;;;;;;2.10;1.60;;;;;;;;;;10145206;29;20048;-85
2023/08/30 12:38:39;;;;;;;4.38;2.60;;;;;;;;;;10143440;29;20059;-86
2023/08/30 12:43:44;;;;;;;3.13;2.17;;;;;;;;;;10140603;29;20597;-85
2023/08/30 12:48:53;;;;;;;4.82;2.38;;;;;;;;;;10136299;29;20439;-86
2023/08/30 12:53:57;;;;;;;3.08;2.03;;;;;;;;;;10151347;29;20414;-85
2023/08/30 12:59:04;;;;;;;3.75;1.83;;;;;;;;;;10138631;29;20056;-85
2023/08/30 13:04:07;;;;;;;2.25;1.70;;;;;;;;;;10132596;29;20459;-85
2023/08/30 13:09:16;;;;;;;3.63;2.13;;;;;;;;;;10161891;29;20055;-85
2023/08/30 13:14:20;;;;;;;3.55;1.70;;;;;;;;;;10126565;29;20239;-85
2023/08/30 13:19:25;;;;;;;2.75;1.63;;;;;;;;;;10125022;29;20109;-85
2023/08/30 13:24:30;;;;;;;2.65;1.85;;;;;;;;;;10129834;29;20514;-86
2023/08/30 13:29:38;;;;;;;4.53;2.42;;;;;;;;;;10142732;29;20558;-85
2023/08/30 13:34:43;;;;;;;2.67;2.22;;;;;;;;;;10136888;29;20059;-85
2023/08/30 13:39:51;;;;;;;2.35;1.63;;;;;;;;;;10123439;29;20112;-84
2023/08/30 13:44:57;;;;;;;2.97;1.90;;;;;;;;;;10137611;29;20139;-85
2023/08/30 13:50:07;;;;;;;2.70;1.88;;;;;;;;;;10114887;29;20148;-86
2023/08/30 13:55:10;;;;;;;5.55;2.00;;;;;;;;;;10130211;29;20056;-85
2023/08/30 14:00:19;;;;;;;3.05;1.90;;;;;;;;;;10127164;29;20131;-85
2023/08/30 14:05:22;;;;;;;3.63;1.92;;;;;;;;;;10119729;29;20048;-85
2023/08/30 14:10:26;;;;;;;5.10;2.25;;;;;;;;;;10120736;29;20516;-85
2023/08/30 14:15:31;;;;;;;2.67;1.85;;;;;;;;;;10149405;29;20074;-85
2023/08/30 14:20:35;;;;;;;2.75;1.80;;;;;;;;;;10125274;29;20052;-85
2023/08/30 14:25:38;;;;;;;3.47;2.55;;;;;;;;;;10135265;29;20569;-84
2023/08/30 14:30:43;;;;;;;3.20;1.95;;;;;;;;;;10160631;29;20060;-85
2023/08/30 14:35:49;;;;;;;2.40;1.60;;;;;;;;;;10120135;29;20052;-86
2023/08/30 14:40:56;;;;;;;;;;;;;;;;;;10154605;29;20044;-85
2023/08/30 14:46:05;;;;;;;2.10;1.65;;;;;;;;;;10118572;29;19923;-85
2023/08/30 14:51:12;;;;;;;2.13;1.48;;;;;;;;;;10136324;29;20056;-86
2023/08/30 14:56:17;;;;;;;2.75;1.70;;;;;;;;;;10127095;29;20357;-85
2023/08/30 15:01:22;;;;;;;4.95;1.77;;;;;;;;;;10121961;29;20052;-85
2023/08/30 15:06:25;;;;;;;3.08;1.70;;;;;;;;;;10139910;29;20586;-85
2023/08/30 15:11:28;;;;;;;3.28;1.67;;;;;;;;;;10126305;29;20060;-86
2023/08/30 15:16:33;;;;;;;4.53;1.65;;;;;;;;;;10118164;29;20617;-85
2023/08/30 15:21:37;;;;;;;2.65;1.35;;;;;;;;;;10133261;29;20498;-86
2023/08/30 15:26:40;;;;;;;3.55;1.80;;;;;;;;;;10156038;29;20048;-85
2023/08/30 15:31:50;;;;;;;2.63;1.50;;;;;;;;;;10126954;29;20141;-85
2023/08/30 15:36:53;;;;;;;2.22;1.35;;;;;;;;;;10142275;29;20054;-85
2023/08/30 15:41:57;;;;;;;2.75;1.33;;;;;;;;;;10126770;29;20040;-85
2023/08/30 15:47:02;;;;;;;3.42;1.15;;;;;;;;;;10129831;29;20652;-85
2023/08/30 15:52:06;;;;;;;2.50;1.75;;;;;;;;;;10117529;29;20087;-86
2023/08/30 15:57:09;;;;;;;4.22;1.63;;;;;;;;;;10143600;29;20484;-86
2023/08/30 16:02:16;;;;;;;2.05;1.70;;;;;;;;;;10124111;29;20048;-85
2023/08/30 16:07:23;;;;;;;2.85;1.90;;;;;;;;;;10128988;29;20052;-85
2023/08/30 16:12:27;;;;;;;2.50;1.60;;;;;;;;;;10131390;29;20072;-84
2023/08/30 16:17:32;;;;;;;2.50;1.40;;;;;;;;;;10163914;29;20108;-85
2023/08/30 16:22:36;;;;;;;2.38;1.60;;;;;;;;;;10129984;29;20040;-85
2023/08/30 16:27:39;;;;;;;2.03;1.63;;;;;;;;;;10144201;29;20056;-86
2023/08/30 16:32:44;;;;;;;2.25;1.52;;;;;;;;;;10143272;29;20354;-85
2023/08/30 16:37:47;;;;;;;2.45;1.33;;;;;;;;;;10138320;29;20045;-86
2023/08/30 16:42:52;;;;;;;1.50;0.98;;;;;;;;;;10127567;29;20040;-86
2023/08/30 16:47:57;;;;;;;1.27;0.77;;;;;;;;;;10117641;29;20382;-87
2023/08/30 16:53:08;;;;;;;0.63;0.50;;;;;;;;;;10125451;29;20049;-86
2023/08/30 16:58:12;;;;;;;0.80;0.80;;;;;;;;;;10138949;29;20036;-86
2023/08/30 17:03:17;;;;;;;1.92;0.82;;;;;;;;;;10143143;29;20302;-85
2023/08/30 17:08:21;;;;;;;1.02;0.60;;;;;;;;;;10140602;29;20064;-86
2023/08/30 17:13:25;;;;;;;0.57;0.50;;;;;;;;;;10133616;29;20678;-86
2023/08/30 17:18:31;;;;;;;0.57;0.50;;;;;;;;;;10124309;29;20056;-86
2023/08/30 17:23:34;;;;;;;0.47;0.45;;;;;;;;;;10132787;29;20047;-86
2023/08/30 17:28:38;;;;;;;0.32;0.32;;;;;;;;;;10131852;29;20064;-86
2023/08/30 17:33:43;;;;;;;0.77;0.40;;;;;;;;;;10136333;29;20074;-85
2023/08/30 17:38:47;;;;;;;1.00;0.70;;;;;;;;;;10125527;29;20281;-85
2023/08/30 17:43:50;;;;;;;0.70;0.47;;;;;;;;;;10113326;29;20072;-87
2023/08/30 17:48:55;;;;;;;1.98;0.65;;;;;;;;;;10134814;29;20124;-87
2023/08/30 17:53:58;;;;;;;2.75;0.63;;;;;;;;;;10148516;29;20041;-85
2023/08/30 17:59:02;;;;;;;1.00;0.60;;;;;;;;;;10143533;29;20104;-85
2023/08/30 18:04:07;;;;;;;1.17;0.65;;;;;;;;;;10123315;29;20049;-85
2023/08/30 18:09:11;;;;;;;3.05;1.02;;;;;;;;;;10121633;29;20562;-85
2023/08/30 18:14:17;;;;;;;1.80;0.80;;;;;;;;;;10137220;29;20464;-85
2023/08/30 18:19:24;;;;;;;1.92;0.90;;;;;;;;;;10136993;29;20076;-85
2023/08/30 18:24:27;;;;;;;1.58;0.80;;;;;;;;;;10144459;29;21444;-85
2023/08/30 18:29:31;;;;;;;1.83;0.60;;;;;;;;;;10129706;29;20082;-85
2023/08/30 18:34:37;;;;;;;1.15;0.80;;;;;;;;;;10130171;29;20135;-85
2023/08/30 18:39:40;;;;;;;0.80;0.70;;;;;;;;;;10118272;29;20194;-86
2023/08/30 18:44:46;;;;;;;0.50;0.50;;;;;;;;;;10116305;29;20052;-85
2023/08/30 18:49:51;;;;;;;;;;;;;;;;;;10127314;29;20040;-85
2023/08/30 18:54:54;;;;;;;1.88;0.85;;;;;;;;;;10144988;29;20022;-85
2023/08/30 18:59:58;;;;;;;2.15;1.10;;;;;;;;;;10113574;29;20041;-84
2023/08/30 19:05:27;;;;;;;1.08;0.73;;;;;;;;;;11738846;23;20059;-83
2023/08/30 19:10:30;;;;;;;1.52;0.98;;;;;;;;;;10111889;29;20109;-93
2023/08/30 19:15:35;;;;;;;2.08;0.73;;;;;;;;;;10123070;29;20587;-91
2023/08/30 19:20:43;;;;;;;2.53;1.00;;;;;;;;;;10136415;29;20176;-92
2023/08/30 19:25:49;;;;;;;1.92;0.85;;;;;;;;;;10145020;29;20131;-91
2023/08/30 19:30:53;;;;;;;1.83;1.02;;;;;;;;;;10140626;29;20133;-91
2023/08/30 19:35:58;;;;;;;2.35;1.20;;;;;;;;;;10108108;29;20052;-91
2023/08/30 19:41:03;;;;;;;0.65;0.50;;;;;;;;;;10131295;29;20574;-91
2023/08/30 19:46:07;;;;;;;1.23;0.70;;;;;;;;;;10109406;29;20120;-93
2023/08/30 19:51:13;;;;;;;1.10;0.75;;;;;;;;;;10138204;29;20044;-93
2023/08/30 19:56:24;;;;;;;1.13;0.60;;;;;;;;;;10114543;29;20052;-91
2023/08/30 20:02:00;;;;;;;1.17;1.08;;;;;;;;;;10114819;29;20060;-92
2023/08/30 20:07:59;;;;;;;;;;;;;;;;;;;;;
2023/08/30 20:19:41;;;;;;;1.25;0.70;;;;;;;;;;9819039;29;20059;-92
2023/08/30 20:25:45;;;;;;;;;;;;;;;;;;;;;
2023/08/30 20:37:28;;;;;;;0.70;0.65;;;;;;;;;;9981190;29;20054;-91
2023/08/30 20:43:54;;;;;;;;;;;;;;;;;;;;;
2023/08/30 20:49:43;;;;;;;2.58;0.60;;;;;;;;;;9998031;29;20048;-90
2023/08/30 20:54:47;;;;;;;1.10;0.70;;;;;;;;;;10125236;29;20095;-90
2023/08/30 20:59:51;;;;;;;0.80;0.65;;;;;;;;;;10131543;29;20579;-89
2023/08/30 21:04:56;;;;;;;0.95;0.82;;;;;;;;;;10121447;29;20060;-89
2023/08/30 21:10:00;;;;;;;0.40;0.40;;;;;;;;;;10113513;29;20523;-89
2023/08/30 21:15:04;;;;;;;1.48;0.73;;;;;;;;;;10129002;29;20053;-88
2023/08/30 21:20:10;;;;;;;0.65;0.60;;;;;;;;;;10145973;29;20060;-90
2023/08/30 21:25:15;;;;;;;1.20;0.80;;;;;;;;;;10131355;29;20056;-89
2023/08/30 21:30:22;;;;;;;0.90;0.60;;;;;;;;;;10093458;29;20103;-90
2023/08/30 21:35:29;;;;;;;0.95;0.63;;;;;;;;;;10137102;29;20540;-90
2023/08/30 21:40:34;;;;;;;1.10;0.90;;;;;;;;;;10139910;29;20669;-90
2023/08/30 21:45:41;;;;;;;0.82;0.55;;;;;;;;;;10127333;29;20051;-90
2023/08/30 21:50:56;;;;;;;3.25;0.88;;;;;;;;;;10110596;29;20049;-91
2023/08/30 21:56:04;;;;;;;1.10;0.90;;;;;;;;;;10114731;29;20063;-91
2023/08/30 22:01:10;;;;;;;1.77;0.70;;;;;;;;;;10110208;29;20056;-91
2023/08/30 22:06:19;;;;;;;1.77;0.68;;;;;;;;;;10125616;29;20048;-92
2023/08/30 22:11:23;;;;;;;1.40;0.75;;;;;;;;;;10123973;29;20219;-90
2023/08/30 22:16:26;;;;;;;0.57;0.52;;;;;;;;;;10128783;29;20525;-91
2023/08/30 22:21:32;;;;;;;1.10;1.00;;;;;;;;;;10119444;29;20226;-91
2023/08/30 22:26:36;;;;;;;1.42;0.75;;;;;;;;;;10118348;29;20063;-90
2023/08/30 22:31:39;;;;;;;1.25;0.98;;;;;;;;;;10112026;29;20056;-90
2023/08/30 22:36:44;;;;;;;1.60;0.80;;;;;;;;;;10159289;29;20044;-90
2023/08/30 22:41:49;;;;;;;;;;;;;;;;;;10133925;29;20059;-91
2023/08/30 22:46:53;;;;;;;0.82;0.60;;;;;;;;;;10121269;29;19931;-90
2023/08/30 22:52:01;;;;;;;2.60;0.55;;;;;;;;;;10112333;29;20113;-91
2023/08/30 22:57:08;;;;;;;1.33;0.80;;;;;;;;;;10120525;29;20705;-88
2023/08/30 23:02:12;;;;;;;1.08;0.70;;;;;;;;;;10123660;29;20059;-91
2023/08/30 23:07:20;;;;;;;1.50;0.90;;;;;;;;;;10127159;29;20480;-92
2023/08/30 23:12:24;;;;;;;0.68;0.68;;;;;;;;;;10091681;29;20071;-90
2023/08/30 23:17:28;;;;;;;0.77;0.70;;;;;;;;;;10135374;29;20063;-90
2023/08/30 23:22:34;;;;;;;0.70;0.68;;;;;;;;;;10123159;29;20450;-89
2023/08/30 23:27:37;;;;;;;1.05;0.95;;;;;;;;;;10136686;29;20764;-92
2023/08/30 23:32:41;;;;;;;1.35;0.82;;;;;;;;;;10099309;29;20068;-88
2023/08/30 23:37:46;;;;;;;1.65;0.80;;;;;;;;;;10098565;29;20056;-89
2023/08/30 23:42:49;;;;;;;1.38;1.00;;;;;;;;;;10123025;29;20142;-89
2023/08/30 23:47:53;;;;;;;2.20;1.00;;;;;;;;;;10124978;29;20087;-89
2023/08/30 23:52:59;;;;;;;0.80;0.70;;;;;;;;;;10149219;29;20084;-89
2023/08/30 23:58:05;;;;;;;1.05;0.95;;;;;;;;;;10105219;29;20059;-87
